sensor_id;sensor_type;location;lat;lon;timestamp;P1;durP1;ratioP1;P2;durP2;ratioP2
5805;SDS011;2929;50.810;8.342;2024-03-22T00:02:25;14.43;;;9.77;;
5805;SDS011;2929;50.810;8.342;2024-03-22T00:04:52;15.43;;;9.70;;
5805;SDS011;2929;50.810;8.342;2024-03-22T00:07:19;15.27;;;9.57;;
5805;SDS011;2929;50.810;8.342;2024-03-22T00:09:46;15.40;;;9.37;;
5805;SDS011;2929;50.810;8.342;2024-03-22T00:12:12;17.50;;;10.70;;
5805;SDS011;2929;50.810;8.342;2024-03-22T00:14:39;17.70;;;10.80;;
5805;SDS011;2929;50.810;8.342;2024-03-22T00:17:07;21.63;;;12.70;;
5805;SDS011;2929;50.810;8.342;2024-03-22T00:19:34;18.53;;;11.10;;
5805;SDS011;2929;50.810;8.342;2024-03-22T00:22:01;17.47;;;10.10;;
5805;SDS011;2929;50.810;8.342;2024-03-22T00:24:28;16.17;;;11.17;;
5805;SDS011;2929;50.810;8.342;2024-03-22T00:26:54;16.67;;;10.90;;
5805;SDS011;2929;50.810;8.342;2024-03-22T00:29:21;19.20;;;11.97;;
5805;SDS011;2929;50.810;8.342;2024-03-22T00:31:48;20.67;;;10.63;;
5805;SDS011;2929;50.810;8.342;2024-03-22T00:34:16;19.20;;;10.70;;
5805;SDS011;2929;50.810;8.342;2024-03-22T00:36:44;18.83;;;12.40;;
5805;SDS011;2929;50.810;8.342;2024-03-22T00:39:11;22.73;;;12.03;;
5805;SDS011;2929;50.810;8.342;2024-03-22T00:41:39;22.20;;;12.20;;
5805;SDS011;2929;50.810;8.342;2024-03-22T00:44:06;21.87;;;12.70;;
5805;SDS011;2929;50.810;8.342;2024-03-22T00:46:32;18.30;;;11.10;;
5805;SDS011;2929;50.810;8.342;2024-03-22T00:49:00;18.47;;;10.60;;
5805;SDS011;2929;50.810;8.342;2024-03-22T00:51:28;21.00;;;10.00;;
5805;SDS011;2929;50.810;8.342;2024-03-22T00:53:55;13.70;;;9.30;;
5805;SDS011;2929;50.810;8.342;2024-03-22T00:56:21;13.73;;;9.50;;
5805;SDS011;2929;50.810;8.342;2024-03-22T00:58:49;17.00;;;11.40;;
5805;SDS011;2929;50.810;8.342;2024-03-22T01:01:15;15.50;;;9.77;;
5805;SDS011;2929;50.810;8.342;2024-03-22T01:03:42;19.53;;;11.30;;
5805;SDS011;2929;50.810;8.342;2024-03-22T01:06:09;22.67;;;12.60;;
5805;SDS011;2929;50.810;8.342;2024-03-22T01:08:38;24.30;;;12.33;;
5805;SDS011;2929;50.810;8.342;2024-03-22T01:11:04;38.37;;;15.10;;
5805;SDS011;2929;50.810;8.342;2024-03-22T01:13:31;30.00;;;13.90;;
5805;SDS011;2929;50.810;8.342;2024-03-22T01:15:58;25.20;;;14.20;;
5805;SDS011;2929;50.810;8.342;2024-03-22T01:18:25;23.23;;;12.00;;
5805;SDS011;2929;50.810;8.342;2024-03-22T01:20:51;18.97;;;12.10;;
5805;SDS011;2929;50.810;8.342;2024-03-22T01:23:18;18.80;;;11.00;;
5805;SDS011;2929;50.810;8.342;2024-03-22T01:25:46;20.53;;;11.73;;
5805;SDS011;2929;50.810;8.342;2024-03-22T01:28:13;23.77;;;12.60;;
5805;SDS011;2929;50.810;8.342;2024-03-22T01:30:40;25.23;;;13.23;;
5805;SDS011;2929;50.810;8.342;2024-03-22T01:33:08;17.83;;;11.53;;
5805;SDS011;2929;50.810;8.342;2024-03-22T01:35:34;22.60;;;11.83;;
5805;SDS011;2929;50.810;8.342;2024-03-22T01:38:02;27.23;;;14.50;;
5805;SDS011;2929;50.810;8.342;2024-03-22T01:40:28;31.70;;;12.90;;
5805;SDS011;2929;50.810;8.342;2024-03-22T01:42:58;29.17;;;11.40;;
5805;SDS011;2929;50.810;8.342;2024-03-22T01:45:24;19.70;;;11.10;;
5805;SDS011;2929;50.810;8.342;2024-03-22T01:47:52;23.13;;;11.80;;
5805;SDS011;2929;50.810;8.342;2024-03-22T01:50:19;23.17;;;13.57;;
5805;SDS011;2929;50.810;8.342;2024-03-22T01:52:46;18.77;;;11.70;;
5805;SDS011;2929;50.810;8.342;2024-03-22T01:55:13;20.10;;;12.10;;
5805;SDS011;2929;50.810;8.342;2024-03-22T01:57:40;28.83;;;12.90;;
5805;SDS011;2929;50.810;8.342;2024-03-22T02:00:13;19.50;;;12.17;;
5805;SDS011;2929;50.810;8.342;2024-03-22T02:02:40;20.10;;;11.63;;
5805;SDS011;2929;50.810;8.342;2024-03-22T02:05:13;22.70;;;12.87;;
5805;SDS011;2929;50.810;8.342;2024-03-22T02:07:47;21.17;;;11.63;;
5805;SDS011;2929;50.810;8.342;2024-03-22T02:10:15;25.03;;;13.10;;
5805;SDS011;2929;50.810;8.342;2024-03-22T02:12:42;21.40;;;12.13;;
5805;SDS011;2929;50.810;8.342;2024-03-22T02:15:09;19.40;;;11.97;;
5805;SDS011;2929;50.810;8.342;2024-03-22T02:17:37;26.53;;;13.27;;
5805;SDS011;2929;50.810;8.342;2024-03-22T02:20:04;78.30;;;25.20;;
5805;SDS011;2929;50.810;8.342;2024-03-22T02:22:32;53.47;;;19.03;;
5805;SDS011;2929;50.810;8.342;2024-03-22T02:25:00;21.83;;;12.27;;
5805;SDS011;2929;50.810;8.342;2024-03-22T02:27:27;19.00;;;10.60;;
5805;SDS011;2929;50.810;8.342;2024-03-22T02:29:53;16.10;;;10.83;;
5805;SDS011;2929;50.810;8.342;2024-03-22T02:32:21;25.37;;;13.53;;
5805;SDS011;2929;50.810;8.342;2024-03-22T02:34:47;26.23;;;12.57;;
5805;SDS011;2929;50.810;8.342;2024-03-22T02:37:14;27.00;;;13.37;;
5805;SDS011;2929;50.810;8.342;2024-03-22T02:39:41;35.03;;;15.50;;
5805;SDS011;2929;50.810;8.342;2024-03-22T02:42:11;23.87;;;13.97;;
5805;SDS011;2929;50.810;8.342;2024-03-22T02:44:37;30.83;;;15.13;;
5805;SDS011;2929;50.810;8.342;2024-03-22T02:47:08;30.20;;;14.03;;
5805;SDS011;2929;50.810;8.342;2024-03-22T02:49:35;34.03;;;16.17;;
5805;SDS011;2929;50.810;8.342;2024-03-22T02:52:01;71.87;;;27.67;;
5805;SDS011;2929;50.810;8.342;2024-03-22T02:54:29;72.67;;;26.27;;
5805;SDS011;2929;50.810;8.342;2024-03-22T02:56:55;32.00;;;14.37;;
5805;SDS011;2929;50.810;8.342;2024-03-22T02:59:26;21.93;;;12.00;;
5805;SDS011;2929;50.810;8.342;2024-03-22T03:01:53;26.37;;;13.27;;
5805;SDS011;2929;50.810;8.342;2024-03-22T03:04:20;27.93;;;13.03;;
5805;SDS011;2929;50.810;8.342;2024-03-22T03:06:46;22.90;;;12.30;;
5805;SDS011;2929;50.810;8.342;2024-03-22T03:09:13;25.17;;;13.40;;
5805;SDS011;2929;50.810;8.342;2024-03-22T03:11:40;43.60;;;19.97;;
5805;SDS011;2929;50.810;8.342;2024-03-22T03:14:07;56.10;;;19.90;;
5805;SDS011;2929;50.810;8.342;2024-03-22T03:16:34;39.90;;;19.33;;
5805;SDS011;2929;50.810;8.342;2024-03-22T03:19:02;29.83;;;15.43;;
5805;SDS011;2929;50.810;8.342;2024-03-22T03:21:28;30.43;;;14.37;;
5805;SDS011;2929;50.810;8.342;2024-03-22T03:23:55;27.83;;;13.60;;
5805;SDS011;2929;50.810;8.342;2024-03-22T03:26:21;27.97;;;12.87;;
5805;SDS011;2929;50.810;8.342;2024-03-22T03:28:49;26.13;;;14.87;;
5805;SDS011;2929;50.810;8.342;2024-03-22T03:31:15;27.70;;;14.97;;
5805;SDS011;2929;50.810;8.342;2024-03-22T03:33:47;31.70;;;15.47;;
5805;SDS011;2929;50.810;8.342;2024-03-22T03:36:13;34.20;;;15.87;;
5805;SDS011;2929;50.810;8.342;2024-03-22T03:38:40;35.33;;;17.60;;
5805;SDS011;2929;50.810;8.342;2024-03-22T03:41:07;32.23;;;16.90;;
5805;SDS011;2929;50.810;8.342;2024-03-22T03:43:34;28.87;;;15.37;;
5805;SDS011;2929;50.810;8.342;2024-03-22T03:46:00;32.90;;;16.60;;
5805;SDS011;2929;50.810;8.342;2024-03-22T03:48:27;29.53;;;16.30;;
5805;SDS011;2929;50.810;8.342;2024-03-22T03:50:55;29.37;;;15.73;;
5805;SDS011;2929;50.810;8.342;2024-03-22T03:53:24;30.43;;;15.30;;
5805;SDS011;2929;50.810;8.342;2024-03-22T03:55:50;28.17;;;14.73;;
5805;SDS011;2929;50.810;8.342;2024-03-22T03:58:17;37.47;;;15.23;;
5805;SDS011;2929;50.810;8.342;2024-03-22T04:00:44;34.00;;;16.00;;
5805;SDS011;2929;50.810;8.342;2024-03-22T04:03:11;30.83;;;16.23;;
5805;SDS011;2929;50.810;8.342;2024-03-22T04:05:37;31.03;;;14.87;;
5805;SDS011;2929;50.810;8.342;2024-03-22T04:08:06;28.13;;;13.77;;
5805;SDS011;2929;50.810;8.342;2024-03-22T04:10:32;35.83;;;16.67;;
5805;SDS011;2929;50.810;8.342;2024-03-22T04:12:59;31.63;;;15.60;;
5805;SDS011;2929;50.810;8.342;2024-03-22T04:15:26;30.20;;;16.37;;
5805;SDS011;2929;50.810;8.342;2024-03-22T04:17:55;29.23;;;14.77;;
5805;SDS011;2929;50.810;8.342;2024-03-22T04:20:24;30.80;;;15.10;;
5805;SDS011;2929;50.810;8.342;2024-03-22T04:22:52;29.30;;;15.13;;
5805;SDS011;2929;50.810;8.342;2024-03-22T04:25:20;31.23;;;16.23;;
5805;SDS011;2929;50.810;8.342;2024-03-22T04:27:47;30.67;;;14.60;;
5805;SDS011;2929;50.810;8.342;2024-03-22T04:30:13;32.37;;;14.27;;
5805;SDS011;2929;50.810;8.342;2024-03-22T04:32:41;25.10;;;14.10;;
5805;SDS011;2929;50.810;8.342;2024-03-22T04:35:07;31.47;;;16.00;;
5805;SDS011;2929;50.810;8.342;2024-03-22T04:37:35;36.50;;;15.07;;
5805;SDS011;2929;50.810;8.342;2024-03-22T04:40:02;32.23;;;14.63;;
5805;SDS011;2929;50.810;8.342;2024-03-22T04:42:31;35.20;;;17.53;;
5805;SDS011;2929;50.810;8.342;2024-03-22T04:44:57;34.53;;;16.33;;
5805;SDS011;2929;50.810;8.342;2024-03-22T04:47:24;30.30;;;15.90;;
5805;SDS011;2929;50.810;8.342;2024-03-22T04:49:50;38.13;;;15.10;;
5805;SDS011;2929;50.810;8.342;2024-03-22T04:52:18;29.70;;;14.40;;
5805;SDS011;2929;50.810;8.342;2024-03-22T04:54:44;33.07;;;17.17;;
5805;SDS011;2929;50.810;8.342;2024-03-22T04:57:12;34.37;;;14.73;;
5805;SDS011;2929;50.810;8.342;2024-03-22T04:59:40;30.30;;;15.20;;
5805;SDS011;2929;50.810;8.342;2024-03-22T05:02:07;27.70;;;15.50;;
5805;SDS011;2929;50.810;8.342;2024-03-22T05:04:33;31.97;;;14.60;;
5805;SDS011;2929;50.810;8.342;2024-03-22T05:07:01;30.20;;;16.67;;
5805;SDS011;2929;50.810;8.342;2024-03-22T05:09:28;32.60;;;14.80;;
5805;SDS011;2929;50.810;8.342;2024-03-22T05:11:58;26.70;;;14.67;;
5805;SDS011;2929;50.810;8.342;2024-03-22T05:14:24;35.30;;;15.53;;
5805;SDS011;2929;50.810;8.342;2024-03-22T05:16:53;33.70;;;18.97;;
5805;SDS011;2929;50.810;8.342;2024-03-22T05:19:19;34.20;;;16.50;;
5805;SDS011;2929;50.810;8.342;2024-03-22T05:21:46;33.50;;;16.23;;
5805;SDS011;2929;50.810;8.342;2024-03-22T05:24:13;27.10;;;16.03;;
5805;SDS011;2929;50.810;8.342;2024-03-22T05:26:43;31.73;;;15.80;;
5805;SDS011;2929;50.810;8.342;2024-03-22T05:29:11;31.03;;;16.23;;
5805;SDS011;2929;50.810;8.342;2024-03-22T05:31:45;35.13;;;16.77;;
5805;SDS011;2929;50.810;8.342;2024-03-22T05:34:13;31.10;;;16.37;;
5805;SDS011;2929;50.810;8.342;2024-03-22T05:36:41;32.67;;;15.93;;
5805;SDS011;2929;50.810;8.342;2024-03-22T05:39:07;35.13;;;16.10;;
5805;SDS011;2929;50.810;8.342;2024-03-22T05:41:37;29.70;;;15.93;;
5805;SDS011;2929;50.810;8.342;2024-03-22T05:44:03;34.03;;;17.47;;
5805;SDS011;2929;50.810;8.342;2024-03-22T05:46:30;32.53;;;16.90;;
5805;SDS011;2929;50.810;8.342;2024-03-22T05:48:57;30.67;;;16.50;;
5805;SDS011;2929;50.810;8.342;2024-03-22T05:51:25;38.87;;;16.23;;
5805;SDS011;2929;50.810;8.342;2024-03-22T05:53:52;34.23;;;17.43;;
5805;SDS011;2929;50.810;8.342;2024-03-22T05:56:19;34.83;;;16.10;;
5805;SDS011;2929;50.810;8.342;2024-03-22T05:58:45;32.47;;;15.93;;
5805;SDS011;2929;50.810;8.342;2024-03-22T06:01:12;34.40;;;17.17;;
5805;SDS011;2929;50.810;8.342;2024-03-22T06:03:40;49.20;;;19.00;;
5805;SDS011;2929;50.810;8.342;2024-03-22T06:06:07;39.43;;;19.47;;
5805;SDS011;2929;50.810;8.342;2024-03-22T06:08:35;38.63;;;18.30;;
5805;SDS011;2929;50.810;8.342;2024-03-22T06:11:06;36.80;;;17.90;;
5805;SDS011;2929;50.810;8.342;2024-03-22T06:13:32;32.37;;;16.23;;
5805;SDS011;2929;50.810;8.342;2024-03-22T06:16:02;34.73;;;15.73;;
5805;SDS011;2929;50.810;8.342;2024-03-22T06:18:29;36.57;;;16.70;;
5805;SDS011;2929;50.810;8.342;2024-03-22T06:20:56;30.30;;;15.70;;
5805;SDS011;2929;50.810;8.342;2024-03-22T06:23:23;31.90;;;17.47;;
5805;SDS011;2929;50.810;8.342;2024-03-22T06:25:52;35.67;;;16.50;;
5805;SDS011;2929;50.810;8.342;2024-03-22T06:28:19;36.50;;;17.50;;
5805;SDS011;2929;50.810;8.342;2024-03-22T06:30:46;36.73;;;16.53;;
5805;SDS011;2929;50.810;8.342;2024-03-22T06:33:12;34.70;;;16.70;;
5805;SDS011;2929;50.810;8.342;2024-03-22T06:35:40;27.97;;;14.90;;
5805;SDS011;2929;50.810;8.342;2024-03-22T06:38:06;32.27;;;16.20;;
5805;SDS011;2929;50.810;8.342;2024-03-22T06:40:34;35.30;;;17.37;;
5805;SDS011;2929;50.810;8.342;2024-03-22T06:43:02;34.57;;;16.20;;
5805;SDS011;2929;50.810;8.342;2024-03-22T06:45:29;39.00;;;17.67;;
5805;SDS011;2929;50.810;8.342;2024-03-22T06:47:55;30.10;;;15.57;;
5805;SDS011;2929;50.810;8.342;2024-03-22T06:50:23;36.77;;;17.73;;
5805;SDS011;2929;50.810;8.342;2024-03-22T06:52:49;34.67;;;16.13;;
5805;SDS011;2929;50.810;8.342;2024-03-22T06:55:18;56.07;;;20.07;;
5805;SDS011;2929;50.810;8.342;2024-03-22T06:57:45;41.90;;;19.37;;
5805;SDS011;2929;50.810;8.342;2024-03-22T07:00:16;41.23;;;16.87;;
5805;SDS011;2929;50.810;8.342;2024-03-22T07:02:43;35.97;;;16.50;;
5805;SDS011;2929;50.810;8.342;2024-03-22T07:05:10;32.93;;;16.30;;
5805;SDS011;2929;50.810;8.342;2024-03-22T07:07:38;35.23;;;15.17;;
5805;SDS011;2929;50.810;8.342;2024-03-22T07:10:05;40.37;;;17.37;;
5805;SDS011;2929;50.810;8.342;2024-03-22T07:12:33;38.30;;;17.20;;
5805;SDS011;2929;50.810;8.342;2024-03-22T07:15:00;52.57;;;20.00;;
5805;SDS011;2929;50.810;8.342;2024-03-22T07:17:29;42.27;;;17.70;;
5805;SDS011;2929;50.810;8.342;2024-03-22T07:19:55;33.97;;;16.17;;
5805;SDS011;2929;50.810;8.342;2024-03-22T07:22:23;38.30;;;17.90;;
5805;SDS011;2929;50.810;8.342;2024-03-22T07:24:50;36.97;;;16.70;;
5805;SDS011;2929;50.810;8.342;2024-03-22T07:27:17;38.60;;;15.47;;
5805;SDS011;2929;50.810;8.342;2024-03-22T07:29:44;31.00;;;15.13;;
5805;SDS011;2929;50.810;8.342;2024-03-22T07:32:11;36.43;;;16.37;;
5805;SDS011;2929;50.810;8.342;2024-03-22T07:34:39;33.67;;;15.87;;
5805;SDS011;2929;50.810;8.342;2024-03-22T07:37:06;36.87;;;15.43;;
5805;SDS011;2929;50.810;8.342;2024-03-22T07:39:32;30.83;;;15.60;;
5805;SDS011;2929;50.810;8.342;2024-03-22T07:42:00;31.43;;;15.77;;
5805;SDS011;2929;50.810;8.342;2024-03-22T07:44:28;31.83;;;14.97;;
5805;SDS011;2929;50.810;8.342;2024-03-22T07:46:57;25.27;;;13.33;;
5805;SDS011;2929;50.810;8.342;2024-03-22T07:49:23;26.87;;;13.60;;
5805;SDS011;2929;50.810;8.342;2024-03-22T07:51:53;28.40;;;13.50;;
5805;SDS011;2929;50.810;8.342;2024-03-22T07:54:19;25.40;;;13.77;;
5805;SDS011;2929;50.810;8.342;2024-03-22T07:56:46;25.83;;;13.47;;
5805;SDS011;2929;50.810;8.342;2024-03-22T07:59:13;32.57;;;16.57;;
5805;SDS011;2929;50.810;8.342;2024-03-22T08:01:40;34.67;;;15.07;;
5805;SDS011;2929;50.810;8.342;2024-03-22T08:04:06;31.73;;;15.00;;
5805;SDS011;2929;50.810;8.342;2024-03-22T08:06:34;39.03;;;15.20;;
5805;SDS011;2929;50.810;8.342;2024-03-22T08:09:01;29.47;;;13.60;;
5805;SDS011;2929;50.810;8.342;2024-03-22T08:11:29;30.10;;;14.90;;
5805;SDS011;2929;50.810;8.342;2024-03-22T08:13:56;27.80;;;13.97;;
5805;SDS011;2929;50.810;8.342;2024-03-22T08:16:28;26.03;;;12.90;;
5805;SDS011;2929;50.810;8.342;2024-03-22T08:18:55;28.00;;;13.20;;
5805;SDS011;2929;50.810;8.342;2024-03-22T08:21:23;27.83;;;13.90;;
5805;SDS011;2929;50.810;8.342;2024-03-22T08:23:50;24.23;;;12.30;;
5805;SDS011;2929;50.810;8.342;2024-03-22T08:26:19;22.93;;;12.30;;
5805;SDS011;2929;50.810;8.342;2024-03-22T08:28:45;27.53;;;12.60;;
5805;SDS011;2929;50.810;8.342;2024-03-22T08:31:16;27.03;;;11.50;;
5805;SDS011;2929;50.810;8.342;2024-03-22T08:33:45;24.33;;;12.70;;
5805;SDS011;2929;50.810;8.342;2024-03-22T08:36:12;20.57;;;11.37;;
5805;SDS011;2929;50.810;8.342;2024-03-22T08:38:39;29.97;;;11.17;;
5805;SDS011;2929;50.810;8.342;2024-03-22T08:41:06;24.90;;;12.10;;
5805;SDS011;2929;50.810;8.342;2024-03-22T08:43:34;22.43;;;10.90;;
5805;SDS011;2929;50.810;8.342;2024-03-22T08:46:01;23.73;;;11.77;;
5805;SDS011;2929;50.810;8.342;2024-03-22T08:48:28;22.23;;;10.90;;
5805;SDS011;2929;50.810;8.342;2024-03-22T08:50:59;17.97;;;10.23;;
5805;SDS011;2929;50.810;8.342;2024-03-22T08:53:33;20.97;;;10.90;;
5805;SDS011;2929;50.810;8.342;2024-03-22T08:56:00;19.07;;;10.20;;
5805;SDS011;2929;50.810;8.342;2024-03-22T08:58:26;22.97;;;11.70;;
5805;SDS011;2929;50.810;8.342;2024-03-22T09:00:55;21.20;;;10.27;;
5805;SDS011;2929;50.810;8.342;2024-03-22T09:03:22;21.40;;;10.93;;
5805;SDS011;2929;50.810;8.342;2024-03-22T09:05:52;24.37;;;10.10;;
5805;SDS011;2929;50.810;8.342;2024-03-22T09:08:18;17.87;;;10.50;;
5805;SDS011;2929;50.810;8.342;2024-03-22T09:10:46;22.03;;;10.50;;
5805;SDS011;2929;50.810;8.342;2024-03-22T09:13:13;16.27;;;10.00;;
5805;SDS011;2929;50.810;8.342;2024-03-22T09:15:40;23.23;;;10.60;;
5805;SDS011;2929;50.810;8.342;2024-03-22T09:18:08;23.60;;;12.00;;
5805;SDS011;2929;50.810;8.342;2024-03-22T09:20:35;18.80;;;10.03;;
5805;SDS011;2929;50.810;8.342;2024-03-22T09:23:02;17.90;;;10.70;;
5805;SDS011;2929;50.810;8.342;2024-03-22T09:25:29;22.07;;;10.80;;
5805;SDS011;2929;50.810;8.342;2024-03-22T09:27:55;21.03;;;10.77;;
5805;SDS011;2929;50.810;8.342;2024-03-22T09:30:23;14.17;;;9.27;;
5805;SDS011;2929;50.810;8.342;2024-03-22T09:32:54;17.83;;;10.60;;
5805;SDS011;2929;50.810;8.342;2024-03-22T09:35:22;19.33;;;10.17;;
5805;SDS011;2929;50.810;8.342;2024-03-22T09:37:49;23.60;;;9.50;;
5805;SDS011;2929;50.810;8.342;2024-03-22T09:40:16;24.73;;;10.43;;
5805;SDS011;2929;50.810;8.342;2024-03-22T09:42:42;15.87;;;9.30;;
5805;SDS011;2929;50.810;8.342;2024-03-22T09:45:10;18.37;;;10.30;;
5805;SDS011;2929;50.810;8.342;2024-03-22T09:47:37;17.27;;;8.33;;
5805;SDS011;2929;50.810;8.342;2024-03-22T09:50:06;16.50;;;9.30;;
5805;SDS011;2929;50.810;8.342;2024-03-22T09:52:34;17.87;;;9.47;;
5805;SDS011;2929;50.810;8.342;2024-03-22T09:55:02;16.07;;;9.23;;
5805;SDS011;2929;50.810;8.342;2024-03-22T09:57:29;16.20;;;9.70;;
5805;SDS011;2929;50.810;8.342;2024-03-22T09:59:59;16.77;;;9.30;;
5805;SDS011;2929;50.810;8.342;2024-03-22T10:02:30;15.63;;;8.70;;
5805;SDS011;2929;50.810;8.342;2024-03-22T10:05:00;13.83;;;9.00;;
5805;SDS011;2929;50.810;8.342;2024-03-22T10:07:27;18.83;;;9.00;;
5805;SDS011;2929;50.810;8.342;2024-03-22T10:10:03;15.97;;;8.90;;
5805;SDS011;2929;50.810;8.342;2024-03-22T10:12:31;19.07;;;9.73;;
5805;SDS011;2929;50.810;8.342;2024-03-22T10:14:58;16.60;;;8.77;;
5805;SDS011;2929;50.810;8.342;2024-03-22T10:17:26;17.70;;;8.43;;
5805;SDS011;2929;50.810;8.342;2024-03-22T10:19:53;15.23;;;9.03;;
5805;SDS011;2929;50.810;8.342;2024-03-22T10:22:19;12.67;;;8.33;;
5805;SDS011;2929;50.810;8.342;2024-03-22T10:24:47;16.17;;;9.50;;
5805;SDS011;2929;50.810;8.342;2024-03-22T10:27:15;12.50;;;7.57;;
5805;SDS011;2929;50.810;8.342;2024-03-22T10:29:43;13.17;;;7.90;;
5805;SDS011;2929;50.810;8.342;2024-03-22T10:32:12;15.63;;;9.67;;
5805;SDS011;2929;50.810;8.342;2024-03-22T10:34:40;18.83;;;8.60;;
5805;SDS011;2929;50.810;8.342;2024-03-22T10:37:10;11.87;;;7.40;;
5805;SDS011;2929;50.810;8.342;2024-03-22T10:39:41;11.87;;;7.90;;
5805;SDS011;2929;50.810;8.342;2024-03-22T10:42:09;10.73;;;7.23;;
5805;SDS011;2929;50.810;8.342;2024-03-22T10:44:38;13.10;;;8.03;;
5805;SDS011;2929;50.810;8.342;2024-03-22T10:47:06;16.27;;;8.30;;
5805;SDS011;2929;50.810;8.342;2024-03-22T10:49:36;13.73;;;8.57;;
5805;SDS011;2929;50.810;8.342;2024-03-22T10:52:03;14.03;;;7.33;;
5805;SDS011;2929;50.810;8.342;2024-03-22T10:54:38;12.27;;;8.63;;
5805;SDS011;2929;50.810;8.342;2024-03-22T10:57:06;15.67;;;9.60;;
5805;SDS011;2929;50.810;8.342;2024-03-22T10:59:34;16.30;;;8.50;;
5805;SDS011;2929;50.810;8.342;2024-03-22T11:02:03;15.63;;;8.33;;
5805;SDS011;2929;50.810;8.342;2024-03-22T11:04:32;20.20;;;9.90;;
5805;SDS011;2929;50.810;8.342;2024-03-22T11:06:59;15.63;;;8.93;;
5805;SDS011;2929;50.810;8.342;2024-03-22T11:09:28;14.10;;;8.30;;
5805;SDS011;2929;50.810;8.342;2024-03-22T11:11:55;16.60;;;9.57;;
5805;SDS011;2929;50.810;8.342;2024-03-22T11:14:24;17.00;;;8.77;;
5805;SDS011;2929;50.810;8.342;2024-03-22T11:16:50;12.90;;;8.70;;
5805;SDS011;2929;50.810;8.342;2024-03-22T11:19:19;14.37;;;8.43;;
5805;SDS011;2929;50.810;8.342;2024-03-22T11:21:46;18.40;;;9.30;;
5805;SDS011;2929;50.810;8.342;2024-03-22T11:24:13;16.50;;;9.47;;
5805;SDS011;2929;50.810;8.342;2024-03-22T11:26:40;18.03;;;9.20;;
5805;SDS011;2929;50.810;8.342;2024-03-22T11:29:10;17.73;;;10.07;;
5805;SDS011;2929;50.810;8.342;2024-03-22T11:31:39;12.53;;;8.50;;
5805;SDS011;2929;50.810;8.342;2024-03-22T11:34:07;15.60;;;9.17;;
5805;SDS011;2929;50.810;8.342;2024-03-22T11:36:35;17.00;;;8.90;;
5805;SDS011;2929;50.810;8.342;2024-03-22T11:39:03;19.97;;;9.57;;
5805;SDS011;2929;50.810;8.342;2024-03-22T11:41:29;13.17;;;8.07;;
5805;SDS011;2929;50.810;8.342;2024-03-22T11:43:57;17.13;;;7.90;;
5805;SDS011;2929;50.810;8.342;2024-03-22T11:46:25;12.90;;;7.30;;
5805;SDS011;2929;50.810;8.342;2024-03-22T11:48:54;11.20;;;7.50;;
5805;SDS011;2929;50.810;8.342;2024-03-22T11:51:21;11.57;;;7.67;;
5805;SDS011;2929;50.810;8.342;2024-03-22T11:53:51;12.97;;;7.37;;
5805;SDS011;2929;50.810;8.342;2024-03-22T11:56:21;12.20;;;7.37;;
5805;SDS011;2929;50.810;8.342;2024-03-22T11:58:48;16.00;;;8.90;;
5805;SDS011;2929;50.810;8.342;2024-03-22T12:01:16;12.03;;;7.57;;
5805;SDS011;2929;50.810;8.342;2024-03-22T12:03:46;18.63;;;8.30;;
5805;SDS011;2929;50.810;8.342;2024-03-22T12:06:13;16.47;;;10.70;;
5805;SDS011;2929;50.810;8.342;2024-03-22T12:08:41;10.50;;;7.40;;
5805;SDS011;2929;50.810;8.342;2024-03-22T12:11:09;12.93;;;7.50;;
5805;SDS011;2929;50.810;8.342;2024-03-22T12:13:37;24.70;;;7.50;;
5805;SDS011;2929;50.810;8.342;2024-03-22T12:16:04;14.60;;;7.30;;
5805;SDS011;2929;50.810;8.342;2024-03-22T12:18:31;12.40;;;7.17;;
5805;SDS011;2929;50.810;8.342;2024-03-22T12:20:59;11.87;;;6.40;;
5805;SDS011;2929;50.810;8.342;2024-03-22T12:23:25;12.80;;;6.93;;
5805;SDS011;2929;50.810;8.342;2024-03-22T12:25:53;10.87;;;6.70;;
5805;SDS011;2929;50.810;8.342;2024-03-22T12:28:21;11.03;;;7.40;;
5805;SDS011;2929;50.810;8.342;2024-03-22T12:30:49;14.90;;;8.10;;
5805;SDS011;2929;50.810;8.342;2024-03-22T12:33:15;11.07;;;7.20;;
5805;SDS011;2929;50.810;8.342;2024-03-22T12:35:43;15.40;;;7.67;;
5805;SDS011;2929;50.810;8.342;2024-03-22T12:38:09;12.90;;;7.70;;
5805;SDS011;2929;50.810;8.342;2024-03-22T12:40:39;12.67;;;6.47;;
5805;SDS011;2929;50.810;8.342;2024-03-22T12:43:05;19.43;;;7.97;;
5805;SDS011;2929;50.810;8.342;2024-03-22T12:45:34;11.43;;;7.10;;
5805;SDS011;2929;50.810;8.342;2024-03-22T12:48:00;11.87;;;6.40;;
5805;SDS011;2929;50.810;8.342;2024-03-22T12:50:29;16.80;;;6.40;;
5805;SDS011;2929;50.810;8.342;2024-03-22T12:52:55;9.60;;;6.30;;
5805;SDS011;2929;50.810;8.342;2024-03-22T12:55:23;18.37;;;7.50;;
5805;SDS011;2929;50.810;8.342;2024-03-22T12:57:51;11.30;;;6.57;;
5805;SDS011;2929;50.810;8.342;2024-03-22T13:00:18;11.80;;;6.70;;
5805;SDS011;2929;50.810;8.342;2024-03-22T13:02:46;13.07;;;6.60;;
5805;SDS011;2929;50.810;8.342;2024-03-22T13:05:14;13.40;;;7.20;;
5805;SDS011;2929;50.810;8.342;2024-03-22T13:07:40;17.90;;;7.30;;
5805;SDS011;2929;50.810;8.342;2024-03-22T13:10:08;9.70;;;6.53;;
5805;SDS011;2929;50.810;8.342;2024-03-22T13:12:36;12.97;;;7.30;;
5805;SDS011;2929;50.810;8.342;2024-03-22T13:15:03;10.80;;;7.00;;
5805;SDS011;2929;50.810;8.342;2024-03-22T13:17:30;8.07;;;6.60;;
5805;SDS011;2929;50.810;8.342;2024-03-22T13:19:59;12.70;;;6.67;;
5805;SDS011;2929;50.810;8.342;2024-03-22T13:22:25;14.17;;;5.40;;
5805;SDS011;2929;50.810;8.342;2024-03-22T13:25:00;11.67;;;6.47;;
5805;SDS011;2929;50.810;8.342;2024-03-22T13:27:26;13.77;;;5.80;;
5805;SDS011;2929;50.810;8.342;2024-03-22T13:29:53;11.20;;;5.90;;
5805;SDS011;2929;50.810;8.342;2024-03-22T13:32:20;10.30;;;5.40;;
5805;SDS011;2929;50.810;8.342;2024-03-22T13:34:47;14.50;;;5.10;;
5805;SDS011;2929;50.810;8.342;2024-03-22T13:37:17;6.43;;;4.07;;
5805;SDS011;2929;50.810;8.342;2024-03-22T13:39:47;7.10;;;4.27;;
5805;SDS011;2929;50.810;8.342;2024-03-22T13:42:14;5.43;;;3.43;;
5805;SDS011;2929;50.810;8.342;2024-03-22T13:44:41;4.83;;;2.90;;
5805;SDS011;2929;50.810;8.342;2024-03-22T13:47:07;6.03;;;3.27;;
5805;SDS011;2929;50.810;8.342;2024-03-22T13:49:35;6.03;;;3.53;;
5805;SDS011;2929;50.810;8.342;2024-03-22T13:52:01;8.97;;;3.70;;
5805;SDS011;2929;50.810;8.342;2024-03-22T13:54:31;6.93;;;3.83;;
5805;SDS011;2929;50.810;8.342;2024-03-22T13:56:57;4.20;;;3.00;;
5805;SDS011;2929;50.810;8.342;2024-03-22T13:59:25;5.37;;;3.30;;
5805;SDS011;2929;50.810;8.342;2024-03-22T14:01:52;11.73;;;3.30;;
5805;SDS011;2929;50.810;8.342;2024-03-22T14:04:19;6.40;;;3.20;;
5805;SDS011;2929;50.810;8.342;2024-03-22T14:06:45;6.20;;;3.03;;
5805;SDS011;2929;50.810;8.342;2024-03-22T14:09:13;7.13;;;4.00;;
5805;SDS011;2929;50.810;8.342;2024-03-22T14:11:43;5.27;;;3.50;;
5805;SDS011;2929;50.810;8.342;2024-03-22T14:14:14;8.10;;;4.17;;
5805;SDS011;2929;50.810;8.342;2024-03-22T14:16:41;10.93;;;5.00;;
5805;SDS011;2929;50.810;8.342;2024-03-22T14:19:09;9.80;;;4.57;;
5805;SDS011;2929;50.810;8.342;2024-03-22T14:21:35;6.67;;;4.40;;
5805;SDS011;2929;50.810;8.342;2024-03-22T14:24:05;6.07;;;3.53;;
5805;SDS011;2929;50.810;8.342;2024-03-22T14:26:37;4.60;;;3.87;;
5805;SDS011;2929;50.810;8.342;2024-03-22T14:29:18;7.23;;;4.40;;
5805;SDS011;2929;50.810;8.342;2024-03-22T14:31:47;6.60;;;3.57;;
5805;SDS011;2929;50.810;8.342;2024-03-22T14:34:15;6.77;;;4.23;;
5805;SDS011;2929;50.810;8.342;2024-03-22T14:36:42;14.53;;;4.97;;
5805;SDS011;2929;50.810;8.342;2024-03-22T14:39:12;6.30;;;3.80;;
5805;SDS011;2929;50.810;8.342;2024-03-22T14:41:39;5.60;;;3.40;;
5805;SDS011;2929;50.810;8.342;2024-03-22T14:44:06;5.50;;;3.57;;
5805;SDS011;2929;50.810;8.342;2024-03-22T14:46:34;7.10;;;4.20;;
5805;SDS011;2929;50.810;8.342;2024-03-22T14:49:05;7.27;;;3.47;;
5805;SDS011;2929;50.810;8.342;2024-03-22T14:51:32;6.57;;;3.90;;
5805;SDS011;2929;50.810;8.342;2024-03-22T14:54:00;10.73;;;4.40;;
5805;SDS011;2929;50.810;8.342;2024-03-22T14:56:26;8.77;;;4.37;;